sensor_id;sensor_type;location;lat;lon;timestamp;P1;durP1;ratioP1;P2;durP2;ratioP2
489;SDS011;231;48.120;11.576;2023-05-07T00:05:53;15.40;;;14.60;;
489;SDS011;231;48.120;11.576;2023-05-07T00:08:19;14.97;;;14.20;;
489;SDS011;231;48.120;11.576;2023-05-07T00:10:46;16.73;;;15.90;;
489;SDS011;231;48.120;11.576;2023-05-07T00:13:13;15.70;;;14.90;;
489;SDS011;231;48.120;11.576;2023-05-07T00:15:40;14.80;;;14.03;;
489;SDS011;231;48.120;11.576;2023-05-07T00:18:07;15.43;;;14.63;;
489;SDS011;231;48.120;11.576;2023-05-07T00:20:34;14.67;;;13.93;;
489;SDS011;231;48.120;11.576;2023-05-07T00:23:02;15.93;;;15.13;;
489;SDS011;231;48.120;11.576;2023-05-07T00:25:29;15.03;;;14.23;;
489;SDS011;231;48.120;11.576;2023-05-07T00:27:56;17.40;;;16.50;;
489;SDS011;231;48.120;11.576;2023-05-07T00:30:28;20.00;;;17.93;;
489;SDS011;231;48.120;11.576;2023-05-07T00:32:55;18.50;;;17.60;;
489;SDS011;231;48.120;11.576;2023-05-07T00:35:22;16.10;;;15.30;;
489;SDS011;231;48.120;11.576;2023-05-07T00:37:49;18.73;;;17.80;;
489;SDS011;231;48.120;11.576;2023-05-07T00:40:17;18.13;;;17.23;;
489;SDS011;231;48.120;11.576;2023-05-07T00:42:44;22.30;;;18.53;;
489;SDS011;231;48.120;11.576;2023-05-07T00:45:12;18.07;;;17.17;;
489;SDS011;231;48.120;11.576;2023-05-07T00:47:39;17.03;;;16.13;;
489;SDS011;231;48.120;11.576;2023-05-07T00:50:09;16.13;;;15.33;;
489;SDS011;231;48.120;11.576;2023-05-07T00:53:19;17.87;;;16.97;;
489;SDS011;231;48.120;11.576;2023-05-07T00:55:46;17.53;;;16.63;;
489;SDS011;231;48.120;11.576;2023-05-07T00:58:14;16.73;;;15.90;;
489;SDS011;231;48.120;11.576;2023-05-07T01:00:41;15.30;;;14.50;;
489;SDS011;231;48.120;11.576;2023-05-07T01:03:08;17.10;;;16.20;;
489;SDS011;231;48.120;11.576;2023-05-07T01:05:35;16.30;;;15.50;;
489;SDS011;231;48.120;11.576;2023-05-07T01:08:02;16.23;;;15.43;;
489;SDS011;231;48.120;11.576;2023-05-07T01:10:31;15.90;;;15.10;;
489;SDS011;231;48.120;11.576;2023-05-07T01:12:59;16.30;;;15.50;;
489;SDS011;231;48.120;11.576;2023-05-07T01:15:26;14.23;;;13.53;;
489;SDS011;231;48.120;11.576;2023-05-07T01:17:53;15.83;;;15.03;;
489;SDS011;231;48.120;11.576;2023-05-07T01:20:22;14.93;;;14.13;;
489;SDS011;231;48.120;11.576;2023-05-07T01:22:50;15.10;;;14.30;;
489;SDS011;231;48.120;11.576;2023-05-07T01:25:17;14.47;;;13.73;;
489;SDS011;231;48.120;11.576;2023-05-07T01:27:45;16.23;;;15.43;;
489;SDS011;231;48.120;11.576;2023-05-07T01:30:12;16.33;;;15.53;;
489;SDS011;231;48.120;11.576;2023-05-07T01:32:40;17.37;;;16.47;;
489;SDS011;231;48.120;11.576;2023-05-07T01:35:11;15.80;;;15.00;;
489;SDS011;231;48.120;11.576;2023-05-07T01:37:39;16.03;;;15.23;;
489;SDS011;231;48.120;11.576;2023-05-07T01:40:09;16.37;;;15.57;;
489;SDS011;231;48.120;11.576;2023-05-07T01:42:36;16.50;;;15.20;;
489;SDS011;231;48.120;11.576;2023-05-07T01:45:04;17.40;;;16.50;;
489;SDS011;231;48.120;11.576;2023-05-07T01:47:32;16.10;;;15.30;;
489;SDS011;231;48.120;11.576;2023-05-07T01:49:59;15.60;;;14.80;;
489;SDS011;231;48.120;11.576;2023-05-07T01:52:27;15.93;;;15.13;;
489;SDS011;231;48.120;11.576;2023-05-07T01:54:55;16.43;;;15.63;;
489;SDS011;231;48.120;11.576;2023-05-07T01:57:23;14.90;;;14.10;;
489;SDS011;231;48.120;11.576;2023-05-07T01:59:50;14.60;;;13.87;;
489;SDS011;231;48.120;11.576;2023-05-07T02:02:17;15.80;;;15.00;;
489;SDS011;231;48.120;11.576;2023-05-07T02:04:43;14.33;;;13.63;;
489;SDS011;231;48.120;11.576;2023-05-07T02:07:10;16.77;;;15.93;;
489;SDS011;231;48.120;11.576;2023-05-07T02:09:37;14.57;;;13.83;;
489;SDS011;231;48.120;11.576;2023-05-07T02:12:04;15.63;;;14.83;;
489;SDS011;231;48.120;11.576;2023-05-07T02:14:32;16.00;;;15.20;;
489;SDS011;231;48.120;11.576;2023-05-07T02:16:59;15.50;;;14.70;;
489;SDS011;231;48.120;11.576;2023-05-07T02:19:26;13.90;;;13.20;;
489;SDS011;231;48.120;11.576;2023-05-07T02:21:53;15.03;;;14.23;;
489;SDS011;231;48.120;11.576;2023-05-07T02:24:20;14.13;;;13.43;;
489;SDS011;231;48.120;11.576;2023-05-07T02:26:47;14.90;;;14.10;;
489;SDS011;231;48.120;11.576;2023-05-07T02:29:13;12.77;;;12.07;;
489;SDS011;231;48.120;11.576;2023-05-07T02:31:42;12.93;;;12.23;;
489;SDS011;231;48.120;11.576;2023-05-07T02:34:08;13.40;;;12.70;;
489;SDS011;231;48.120;11.576;2023-05-07T02:36:36;12.73;;;12.03;;
489;SDS011;231;48.120;11.576;2023-05-07T02:39:03;12.83;;;12.13;;
489;SDS011;231;48.120;11.576;2023-05-07T02:41:29;14.37;;;13.67;;
489;SDS011;231;48.120;11.576;2023-05-07T02:43:57;12.03;;;11.43;;
489;SDS011;231;48.120;11.576;2023-05-07T02:46:23;12.73;;;12.03;;
489;SDS011;231;48.120;11.576;2023-05-07T02:48:52;12.80;;;12.10;;
489;SDS011;231;48.120;11.576;2023-05-07T02:51:19;11.30;;;10.70;;
489;SDS011;231;48.120;11.576;2023-05-07T02:53:47;12.90;;;12.20;;
489;SDS011;231;48.120;11.576;2023-05-07T02:56:14;13.77;;;13.07;;
489;SDS011;231;48.120;11.576;2023-05-07T02:58:41;12.17;;;11.57;;
489;SDS011;231;48.120;11.576;2023-05-07T03:01:08;11.17;;;10.57;;
489;SDS011;231;48.120;11.576;2023-05-07T03:03:35;11.90;;;11.30;;
489;SDS011;231;48.120;11.576;2023-05-07T03:06:03;12.43;;;10.83;;
489;SDS011;231;48.120;11.576;2023-05-07T03:08:30;13.00;;;12.30;;
489;SDS011;231;48.120;11.576;2023-05-07T03:10:57;11.43;;;10.83;;
489;SDS011;231;48.120;11.576;2023-05-07T03:13:24;13.03;;;12.33;;
489;SDS011;231;48.120;11.576;2023-05-07T03:15:51;11.90;;;11.30;;
489;SDS011;231;48.120;11.576;2023-05-07T03:18:18;11.60;;;11.00;;
489;SDS011;231;48.120;11.576;2023-05-07T03:20:44;11.33;;;10.73;;
489;SDS011;231;48.120;11.576;2023-05-07T03:23:13;10.90;;;10.30;;
489;SDS011;231;48.120;11.576;2023-05-07T03:25:40;14.60;;;12.47;;
489;SDS011;231;48.120;11.576;2023-05-07T03:28:06;13.40;;;10.87;;
489;SDS011;231;48.120;11.576;2023-05-07T03:30:33;12.00;;;11.40;;
489;SDS011;231;48.120;11.576;2023-05-07T03:33:00;11.83;;;11.23;;
489;SDS011;231;48.120;11.576;2023-05-07T03:35:27;12.10;;;11.50;;
489;SDS011;231;48.120;11.576;2023-05-07T03:37:53;12.70;;;12.00;;
489;SDS011;231;48.120;11.576;2023-05-07T03:40:22;11.30;;;10.70;;
489;SDS011;231;48.120;11.576;2023-05-07T03:42:48;11.03;;;10.43;;
489;SDS011;231;48.120;11.576;2023-05-07T03:45:15;12.23;;;11.63;;
489;SDS011;231;48.120;11.576;2023-05-07T03:47:42;11.43;;;10.83;;
489;SDS011;231;48.120;11.576;2023-05-07T03:50:09;12.17;;;11.57;;
489;SDS011;231;48.120;11.576;2023-05-07T03:52:36;11.80;;;11.20;;
489;SDS011;231;48.120;11.576;2023-05-07T03:55:03;11.50;;;10.90;;
489;SDS011;231;48.120;11.576;2023-05-07T03:57:32;10.70;;;10.10;;
489;SDS011;231;48.120;11.576;2023-05-07T03:59:59;10.80;;;10.20;;
489;SDS011;231;48.120;11.576;2023-05-07T04:02:26;10.97;;;10.37;;
489;SDS011;231;48.120;11.576;2023-05-07T04:04:53;12.13;;;11.53;;
489;SDS011;231;48.120;11.576;2023-05-07T04:07:19;11.37;;;10.77;;
489;SDS011;231;48.120;11.576;2023-05-07T04:09:46;12.57;;;11.93;;
489;SDS011;231;48.120;11.576;2023-05-07T04:12:13;12.03;;;11.43;;
489;SDS011;231;48.120;11.576;2023-05-07T04:14:42;12.87;;;12.17;;
489;SDS011;231;48.120;11.576;2023-05-07T04:17:09;12.00;;;11.40;;
489;SDS011;231;48.120;11.576;2023-05-07T04:19:36;11.43;;;10.83;;
489;SDS011;231;48.120;11.576;2023-05-07T04:22:03;11.70;;;11.10;;
489;SDS011;231;48.120;11.576;2023-05-07T04:24:54;11.77;;;11.17;;
489;SDS011;231;48.120;11.576;2023-05-07T04:34:42;11.37;;;10.77;;
489;SDS011;231;48.120;11.576;2023-05-07T04:37:09;11.20;;;10.60;;
489;SDS011;231;48.120;11.576;2023-05-07T04:39:36;11.40;;;10.80;;
489;SDS011;231;48.120;11.576;2023-05-07T04:42:02;11.33;;;10.73;;
489;SDS011;231;48.120;11.576;2023-05-07T04:44:30;11.03;;;10.43;;
489;SDS011;231;48.120;11.576;2023-05-07T04:46:57;11.60;;;11.00;;
489;SDS011;231;48.120;11.576;2023-05-07T04:49:24;11.23;;;10.63;;
489;SDS011;231;48.120;11.576;2023-05-07T04:51:52;10.80;;;10.20;;
489;SDS011;231;48.120;11.576;2023-05-07T04:54:19;10.07;;;9.57;;
489;SDS011;231;48.120;11.576;2023-05-07T04:56:46;10.30;;;9.80;;
489;SDS011;231;48.120;11.576;2023-05-07T04:59:13;9.13;;;8.63;;
489;SDS011;231;48.120;11.576;2023-05-07T05:01:39;8.80;;;8.30;;
489;SDS011;231;48.120;11.576;2023-05-07T05:04:06;8.60;;;8.10;;
489;SDS011;231;48.120;11.576;2023-05-07T05:06:33;8.90;;;8.40;;
489;SDS011;231;48.120;11.576;2023-05-07T05:09:01;7.17;;;6.77;;
489;SDS011;231;48.120;11.576;2023-05-07T05:11:29;9.07;;;8.57;;
489;SDS011;231;48.120;11.576;2023-05-07T05:13:56;7.50;;;7.10;;
489;SDS011;231;48.120;11.576;2023-05-07T05:16:25;7.33;;;6.93;;
489;SDS011;231;48.120;11.576;2023-05-07T05:18:52;7.20;;;6.80;;
489;SDS011;231;48.120;11.576;2023-05-07T05:21:20;7.53;;;7.13;;
489;SDS011;231;48.120;11.576;2023-05-07T05:23:47;7.30;;;6.90;;
489;SDS011;231;48.120;11.576;2023-05-07T05:26:15;7.53;;;7.13;;
489;SDS011;231;48.120;11.576;2023-05-07T05:28:42;7.90;;;7.50;;
489;SDS011;231;48.120;11.576;2023-05-07T05:31:09;8.50;;;8.00;;
489;SDS011;231;48.120;11.576;2023-05-07T05:33:35;7.50;;;7.10;;
489;SDS011;231;48.120;11.576;2023-05-07T05:36:02;7.50;;;7.10;;
489;SDS011;231;48.120;11.576;2023-05-07T05:38:30;6.97;;;6.57;;
489;SDS011;231;48.120;11.576;2023-05-07T05:40:56;7.40;;;7.00;;
489;SDS011;231;48.120;11.576;2023-05-07T05:43:25;7.10;;;6.70;;
489;SDS011;231;48.120;11.576;2023-05-07T05:45:51;7.13;;;6.40;;
489;SDS011;231;48.120;11.576;2023-05-07T05:48:18;5.70;;;5.40;;
489;SDS011;231;48.120;11.576;2023-05-07T05:50:45;7.10;;;6.70;;
489;SDS011;231;48.120;11.576;2023-05-07T05:53:12;5.67;;;5.37;;
489;SDS011;231;48.120;11.576;2023-05-07T05:55:39;5.50;;;5.20;;
489;SDS011;231;48.120;11.576;2023-05-07T05:58:06;5.30;;;5.00;;
489;SDS011;231;48.120;11.576;2023-05-07T06:00:34;5.43;;;5.13;;
489;SDS011;231;48.120;11.576;2023-05-07T06:03:01;4.87;;;4.57;;
489;SDS011;231;48.120;11.576;2023-05-07T06:05:27;4.40;;;4.10;;
489;SDS011;231;48.120;11.576;2023-05-07T06:07:54;3.90;;;3.70;;
489;SDS011;231;48.120;11.576;2023-05-07T06:10:22;4.60;;;4.30;;
489;SDS011;231;48.120;11.576;2023-05-07T06:12:49;4.17;;;3.93;;
489;SDS011;231;48.120;11.576;2023-05-07T06:15:16;5.00;;;4.70;;
489;SDS011;231;48.120;11.576;2023-05-07T06:17:44;4.17;;;3.93;;
489;SDS011;231;48.120;11.576;2023-05-07T06:20:11;5.33;;;3.80;;
489;SDS011;231;48.120;11.576;2023-05-07T06:22:37;4.37;;;4.07;;
489;SDS011;231;48.120;11.576;2023-05-07T06:25:04;4.13;;;3.90;;
489;SDS011;231;48.120;11.576;2023-05-07T06:27:32;4.20;;;3.30;;
489;SDS011;231;48.120;11.576;2023-05-07T06:29:59;3.70;;;3.50;;
489;SDS011;231;48.120;11.576;2023-05-07T06:32:25;3.70;;;3.50;;
489;SDS011;231;48.120;11.576;2023-05-07T06:34:54;4.10;;;3.90;;
489;SDS011;231;48.120;11.576;2023-05-07T06:37:21;3.37;;;3.13;;
489;SDS011;231;48.120;11.576;2023-05-07T06:39:48;3.20;;;3.00;;
489;SDS011;231;48.120;11.576;2023-05-07T06:42:15;4.00;;;3.80;;
489;SDS011;231;48.120;11.576;2023-05-07T06:44:41;3.13;;;2.93;;
489;SDS011;231;48.120;11.576;2023-05-07T06:47:08;3.33;;;3.13;;
489;SDS011;231;48.120;11.576;2023-05-07T06:49:35;3.30;;;3.10;;
489;SDS011;231;48.120;11.576;2023-05-07T06:52:03;3.50;;;3.30;;
489;SDS011;231;48.120;11.576;2023-05-07T06:54:30;3.23;;;3.03;;
489;SDS011;231;48.120;11.576;2023-05-07T06:56:57;3.57;;;3.37;;
489;SDS011;231;48.120;11.576;2023-05-07T06:59:24;3.50;;;3.30;;
489;SDS011;231;48.120;11.576;2023-05-07T07:01:50;3.80;;;3.33;;
489;SDS011;231;48.120;11.576;2023-05-07T07:04:17;3.23;;;3.03;;
489;SDS011;231;48.120;11.576;2023-05-07T07:06:45;3.00;;;2.80;;
489;SDS011;231;48.120;11.576;2023-05-07T07:09:13;2.90;;;2.70;;
489;SDS011;231;48.120;11.576;2023-05-07T07:11:40;2.80;;;2.60;;
489;SDS011;231;48.120;11.576;2023-05-07T07:14:07;2.77;;;2.57;;
489;SDS011;231;48.120;11.576;2023-05-07T07:16:34;3.60;;;3.03;;
489;SDS011;231;48.120;11.576;2023-05-07T07:19:00;3.67;;;3.47;;
489;SDS011;231;48.120;11.576;2023-05-07T07:21:27;3.10;;;2.90;;
489;SDS011;231;48.120;11.576;2023-05-07T07:23:55;3.30;;;3.10;;
489;SDS011;231;48.120;11.576;2023-05-07T07:26:23;3.40;;;3.07;;
489;SDS011;231;48.120;11.576;2023-05-07T07:28:50;3.03;;;2.90;;
489;SDS011;231;48.120;11.576;2023-05-07T07:31:16;3.00;;;2.80;;
489;SDS011;231;48.120;11.576;2023-05-07T07:33:43;4.50;;;4.20;;
489;SDS011;231;48.120;11.576;2023-05-07T07:36:10;4.30;;;3.33;;
489;SDS011;231;48.120;11.576;2023-05-07T07:38:37;3.47;;;2.70;;
489;SDS011;231;48.120;11.576;2023-05-07T07:41:04;2.57;;;2.37;;
489;SDS011;231;48.120;11.576;2023-05-07T07:43:32;3.63;;;3.43;;
489;SDS011;231;48.120;11.576;2023-05-07T07:45:59;2.57;;;2.40;;
489;SDS011;231;48.120;11.576;2023-05-07T07:48:25;3.77;;;3.60;;
489;SDS011;231;48.120;11.576;2023-05-07T07:50:52;4.20;;;2.70;;
489;SDS011;231;48.120;11.576;2023-05-07T07:53:19;2.83;;;2.63;;
489;SDS011;231;48.120;11.576;2023-05-07T07:55:46;2.67;;;2.47;;
489;SDS011;231;48.120;11.576;2023-05-07T07:58:13;3.90;;;2.60;;
489;SDS011;231;48.120;11.576;2023-05-07T08:00:41;2.83;;;2.63;;
489;SDS011;231;48.120;11.576;2023-05-07T08:03:09;2.67;;;2.47;;
489;SDS011;231;48.120;11.576;2023-05-07T08:05:36;3.00;;;2.80;;
489;SDS011;231;48.120;11.576;2023-05-07T08:08:03;2.63;;;2.43;;
489;SDS011;231;48.120;11.576;2023-05-07T08:10:30;2.67;;;2.47;;
489;SDS011;231;48.120;11.576;2023-05-07T08:12:59;3.43;;;3.20;;
489;SDS011;231;48.120;11.576;2023-05-07T08:15:26;4.93;;;2.93;;
489;SDS011;231;48.120;11.576;2023-05-07T08:17:55;2.90;;;2.70;;
489;SDS011;231;48.120;11.576;2023-05-07T08:20:22;3.53;;;3.33;;
489;SDS011;231;48.120;11.576;2023-05-07T08:22:49;2.70;;;2.50;;
489;SDS011;231;48.120;11.576;2023-05-07T08:25:17;3.10;;;2.90;;
489;SDS011;231;48.120;11.576;2023-05-07T08:27:44;3.00;;;2.80;;
489;SDS011;231;48.120;11.576;2023-05-07T08:30:12;4.33;;;3.63;;
489;SDS011;231;48.120;11.576;2023-05-07T08:32:39;2.60;;;2.43;;
489;SDS011;231;48.120;11.576;2023-05-07T08:35:08;3.20;;;3.00;;
489;SDS011;231;48.120;11.576;2023-05-07T08:37:35;3.27;;;3.07;;
489;SDS011;231;48.120;11.576;2023-05-07T08:40:02;3.20;;;2.87;;
489;SDS011;231;48.120;11.576;2023-05-07T08:42:31;3.17;;;2.97;;
489;SDS011;231;48.120;11.576;2023-05-07T08:44:58;3.50;;;3.30;;
489;SDS011;231;48.120;11.576;2023-05-07T08:47:28;3.53;;;3.33;;
489;SDS011;231;48.120;11.576;2023-05-07T08:49:59;3.90;;;3.70;;
489;SDS011;231;48.120;11.576;2023-05-07T08:52:28;3.50;;;3.30;;
489;SDS011;231;48.120;11.576;2023-05-07T08:54:56;3.10;;;2.90;;
489;SDS011;231;48.120;11.576;2023-05-07T08:57:23;4.80;;;3.30;;
489;SDS011;231;48.120;11.576;2023-05-07T08:59:50;5.30;;;3.73;;
489;SDS011;231;48.120;11.576;2023-05-07T09:02:16;3.03;;;2.93;;
489;SDS011;231;48.120;11.576;2023-05-07T09:04:43;7.07;;;3.00;;
489;SDS011;231;48.120;11.576;2023-05-07T09:07:10;3.30;;;2.80;;
489;SDS011;231;48.120;11.576;2023-05-07T09:09:38;3.30;;;3.10;;
489;SDS011;231;48.120;11.576;2023-05-07T09:12:05;2.83;;;2.63;;
489;SDS011;231;48.120;11.576;2023-05-07T09:14:34;3.53;;;3.17;;
489;SDS011;231;48.120;11.576;2023-05-07T09:17:01;3.83;;;2.40;;
489;SDS011;231;48.120;11.576;2023-05-07T09:19:28;2.50;;;2.30;;
489;SDS011;231;48.120;11.576;2023-05-07T09:21:58;3.00;;;2.80;;
489;SDS011;231;48.120;11.576;2023-05-07T09:24:26;4.23;;;2.90;;
489;SDS011;231;48.120;11.576;2023-05-07T09:26:55;3.10;;;2.47;;
489;SDS011;231;48.120;11.576;2023-05-07T09:29:24;3.33;;;2.70;;
489;SDS011;231;48.120;11.576;2023-05-07T09:31:53;3.20;;;3.00;;
489;SDS011;231;48.120;11.576;2023-05-07T09:34:20;3.03;;;2.83;;
489;SDS011;231;48.120;11.576;2023-05-07T09:36:47;3.50;;;3.30;;
489;SDS011;231;48.120;11.576;2023-05-07T09:39:15;3.60;;;3.40;;
489;SDS011;231;48.120;11.576;2023-05-07T09:41:45;2.87;;;2.67;;
489;SDS011;231;48.120;11.576;2023-05-07T09:44:15;2.80;;;2.60;;
489;SDS011;231;48.120;11.576;2023-05-07T09:46:43;3.13;;;2.93;;
489;SDS011;231;48.120;11.576;2023-05-07T09:49:11;3.33;;;2.83;;
489;SDS011;231;48.120;11.576;2023-05-07T09:51:43;2.33;;;2.13;;
489;SDS011;231;48.120;11.576;2023-05-07T09:54:14;2.30;;;2.10;;
489;SDS011;231;48.120;11.576;2023-05-07T09:56:42;3.83;;;3.03;;
489;SDS011;231;48.120;11.576;2023-05-07T09:59:11;2.87;;;2.67;;
489;SDS011;231;48.120;11.576;2023-05-07T10:01:42;2.40;;;2.27;;
489;SDS011;231;48.120;11.576;2023-05-07T10:04:10;2.93;;;2.73;;
489;SDS011;231;48.120;11.576;2023-05-07T10:06:37;4.00;;;3.80;;
489;SDS011;231;48.120;11.576;2023-05-07T10:09:04;3.33;;;3.13;;
489;SDS011;231;48.120;11.576;2023-05-07T10:11:32;3.13;;;2.93;;
489;SDS011;231;48.120;11.576;2023-05-07T10:13:59;2.97;;;2.77;;
489;SDS011;231;48.120;11.576;2023-05-07T10:16:27;3.03;;;2.80;;
489;SDS011;231;48.120;11.576;2023-05-07T10:18:58;3.73;;;3.43;;
489;SDS011;231;48.120;11.576;2023-05-07T10:21:26;5.17;;;3.20;;
489;SDS011;231;48.120;11.576;2023-05-07T10:23:56;2.97;;;2.77;;
489;SDS011;231;48.120;11.576;2023-05-07T10:26:26;3.37;;;3.23;;
489;SDS011;231;48.120;11.576;2023-05-07T10:28:56;4.23;;;3.97;;
489;SDS011;231;48.120;11.576;2023-05-07T10:31:37;3.20;;;3.00;;
489;SDS011;231;48.120;11.576;2023-05-07T10:34:16;3.30;;;3.10;;
489;SDS011;231;48.120;11.576;2023-05-07T10:36:46;4.00;;;3.53;;
489;SDS011;231;48.120;11.576;2023-05-07T10:39:15;3.10;;;2.90;;
489;SDS011;231;48.120;11.576;2023-05-07T10:41:42;3.30;;;3.10;;
489;SDS011;231;48.120;11.576;2023-05-07T10:44:09;4.00;;;3.10;;
489;SDS011;231;48.120;11.576;2023-05-07T10:46:36;3.27;;;2.93;;
489;SDS011;231;48.120;11.576;2023-05-07T10:49:09;2.97;;;2.77;;
489;SDS011;231;48.120;11.576;2023-05-07T10:51:42;3.10;;;2.90;;
489;SDS011;231;48.120;11.576;2023-05-07T10:54:18;3.97;;;3.00;;
489;SDS011;231;48.120;11.576;2023-05-07T10:56:49;2.70;;;2.40;;
489;SDS011;231;48.120;11.576;2023-05-07T10:59:36;2.63;;;2.23;;
489;SDS011;231;48.120;11.576;2023-05-07T11:02:09;3.70;;;2.20;;
489;SDS011;231;48.120;11.576;2023-05-07T11:04:39;2.47;;;2.27;;
489;SDS011;231;48.120;11.576;2023-05-07T11:07:29;2.67;;;2.47;;
489;SDS011;231;48.120;11.576;2023-05-07T11:09:58;2.97;;;2.70;;
489;SDS011;231;48.120;11.576;2023-05-07T11:12:49;3.27;;;3.07;;
489;SDS011;231;48.120;11.576;2023-05-07T11:15:41;3.17;;;2.97;;
489;SDS011;231;48.120;11.576;2023-05-07T11:18:10;2.50;;;2.30;;
489;SDS011;231;48.120;11.576;2023-05-07T11:20:44;3.33;;;3.13;;
489;SDS011;231;48.120;11.576;2023-05-07T11:26:24;3.70;;;3.50;;
489;SDS011;231;48.120;11.576;2023-05-07T11:28:52;3.63;;;3.43;;
489;SDS011;231;48.120;11.576;2023-05-07T11:31:20;3.40;;;3.20;;
489;SDS011;231;48.120;11.576;2023-05-07T11:33:49;4.03;;;3.83;;
489;SDS011;231;48.120;11.576;2023-05-07T11:36:16;4.50;;;4.20;;
489;SDS011;231;48.120;11.576;2023-05-07T11:38:45;3.43;;;3.20;;
489;SDS011;231;48.120;11.576;2023-05-07T11:41:14;4.23;;;3.97;;
489;SDS011;231;48.120;11.576;2023-05-07T11:43:56;3.40;;;3.20;;
489;SDS011;231;48.120;11.576;2023-05-07T11:46:24;4.67;;;3.30;;
489;SDS011;231;48.120;11.576;2023-05-07T11:48:51;4.07;;;3.87;;
489;SDS011;231;48.120;11.576;2023-05-07T11:51:21;4.57;;;4.27;;
489;SDS011;231;48.120;11.576;2023-05-07T11:53:49;7.37;;;5.10;;
489;SDS011;231;48.120;11.576;2023-05-07T11:56:18;5.33;;;5.07;;
489;SDS011;231;48.120;11.576;2023-05-07T11:58:46;5.07;;;4.77;;
489;SDS011;231;48.120;11.576;2023-05-07T12:01:14;5.77;;;5.47;;
489;SDS011;231;48.120;11.576;2023-05-07T12:03:43;5.30;;;5.00;;
489;SDS011;231;48.120;11.576;2023-05-07T12:06:11;5.50;;;4.00;;
489;SDS011;231;48.120;11.576;2023-05-07T12:08:40;5.20;;;4.90;;
489;SDS011;231;48.120;11.576;2023-05-07T12:11:08;4.00;;;3.80;;
489;SDS011;231;48.120;11.576;2023-05-07T12:13:38;5.73;;;4.50;;
489;SDS011;231;48.120;11.576;2023-05-07T12:16:05;4.97;;;4.60;;
489;SDS011;231;48.120;11.576;2023-05-07T12:18:33;4.40;;;4.10;;
489;SDS011;231;48.120;11.576;2023-05-07T12:21:02;4.40;;;4.10;;
489;SDS011;231;48.120;11.576;2023-05-07T12:23:30;5.07;;;4.30;;
489;SDS011;231;48.120;11.576;2023-05-07T12:25:57;4.83;;;4.53;;
489;SDS011;231;48.120;11.576;2023-05-07T12:28:25;4.60;;;4.23;;
489;SDS011;231;48.120;11.576;2023-05-07T12:30:53;4.43;;;4.13;;
489;SDS011;231;48.120;11.576;2023-05-07T12:33:23;3.87;;;3.67;;
489;SDS011;231;48.120;11.576;2023-05-07T12:35:52;4.80;;;4.50;;
489;SDS011;231;48.120;11.576;2023-05-07T12:38:20;5.10;;;4.43;;
489;SDS011;231;48.120;11.576;2023-05-07T12:40:47;4.97;;;4.67;;
489;SDS011;231;48.120;11.576;2023-05-07T12:43:16;5.10;;;4.13;;
489;SDS011;231;48.120;11.576;2023-05-07T12:45:43;4.40;;;4.10;;
489;SDS011;231;48.120;11.576;2023-05-07T12:48:13;5.47;;;4.20;;
489;SDS011;231;48.120;11.576;2023-05-07T12:50:40;4.10;;;3.87;;
489;SDS011;231;48.120;11.576;2023-05-07T12:53:08;4.13;;;3.90;;
489;SDS011;231;48.120;11.576;2023-05-07T12:55:43;3.17;;;2.97;;
489;SDS011;231;48.120;11.576;2023-05-07T12:58:17;4.97;;;4.70;;
489;SDS011;231;48.120;11.576;2023-05-07T13:00:46;4.23;;;3.43;;
489;SDS011;231;48.120;11.576;2023-05-07T13:03:22;3.70;;;3.50;;
489;SDS011;231;48.120;11.576;2023-05-07T13:05:50;5.30;;;3.70;;
489;SDS011;231;48.120;11.576;2023-05-07T13:08:24;3.57;;;3.37;;
489;SDS011;231;48.120;11.576;2023-05-07T13:10:55;2.73;;;2.27;;
489;SDS011;231;48.120;11.576;2023-05-07T13:13:22;3.40;;;3.30;;
489;SDS011;231;48.120;11.576;2023-05-07T13:15:50;3.23;;;3.03;;
489;SDS011;231;48.120;11.576;2023-05-07T13:18:17;3.03;;;2.83;;
489;SDS011;231;48.120;11.576;2023-05-07T13:20:45;3.20;;;3.00;;
489;SDS011;231;48.120;11.576;2023-05-07T13:23:12;3.00;;;2.80;;
489;SDS011;231;48.120;11.576;2023-05-07T13:25:38;2.70;;;2.53;;
489;SDS011;231;48.120;11.576;2023-05-07T13:28:05;2.90;;;2.70;;
489;SDS011;231;48.120;11.576;2023-05-07T13:30:32;3.20;;;3.00;;
489;SDS011;231;48.120;11.576;2023-05-07T13:32:59;3.37;;;3.17;;
489;SDS011;231;48.120;11.576;2023-05-07T13:35:26;3.50;;;3.30;;
489;SDS011;231;48.120;11.576;2023-05-07T13:37:55;4.10;;;2.77;;
489;SDS011;231;48.120;11.576;2023-05-07T13:40:22;3.10;;;2.73;;
489;SDS011;231;48.120;11.576;2023-05-07T13:42:49;2.80;;;2.60;;
489;SDS011;231;48.120;11.576;2023-05-07T13:45:17;3.67;;;2.83;;
489;SDS011;231;48.120;11.576;2023-05-07T13:47:44;2.87;;;2.63;;
489;SDS011;231;48.120;11.576;2023-05-07T13:50:12;3.10;;;2.90;;
489;SDS011;231;48.120;11.576;2023-05-07T13:52:40;2.60;;;2.40;;
489;SDS011;231;48.120;11.576;2023-05-07T13:55:09;3.50;;;2.40;;
489;SDS011;231;48.120;11.576;2023-05-07T13:57:36;2.90;;;2.80;;
489;SDS011;231;48.120;11.576;2023-05-07T14:00:03;6.47;;;3.50;;
489;SDS011;231;48.120;11.576;2023-05-07T14:02:31;3.03;;;2.83;;
489;SDS011;231;48.120;11.576;2023-05-07T14:04:58;3.07;;;2.87;;
489;SDS011;231;48.120;11.576;2023-05-07T14:07:25;2.80;;;2.60;;
489;SDS011;231;48.120;11.576;2023-05-07T14:09:52;4.10;;;3.20;;
489;SDS011;231;48.120;11.576;2023-05-07T14:32:55;3.33;;;2.80;;
489;SDS011;231;48.120;11.576;2023-05-07T14:49:05;3.50;;;3.30;;
489;SDS011;231;48.120;11.576;2023-05-07T14:52:11;5.90;;;3.70;;
489;SDS011;231;48.120;11.576;2023-05-07T16:29:39;3.03;;;2.83;;
489;SDS011;231;48.120;11.576;2023-05-07T20:15:32;7.40;;;7.00;;
489;SDS011;231;48.120;11.576;2023-05-07T20:18:06;7.87;;;7.47;;
489;SDS011;231;48.120;11.576;2023-05-07T20:20:33;8.10;;;7.70;;
489;SDS011;231;48.120;11.576;2023-05-07T20:23:00;8.23;;;7.83;;
489;SDS011;231;48.120;11.576;2023-05-07T20:25:27;8.00;;;7.60;;
489;SDS011;231;48.120;11.576;2023-05-07T20:27:54;7.77;;;7.37;;
489;SDS011;231;48.120;11.576;2023-05-07T20:30:21;8.10;;;7.70;;
489;SDS011;231;48.120;11.576;2023-05-07T20:32:50;8.50;;;8.00;;
489;SDS011;231;48.120;11.576;2023-05-07T20:35:17;8.30;;;7.90;;
489;SDS011;231;48.120;11.576;2023-05-07T20:37:44;8.03;;;7.63;;
489;SDS011;231;48.120;11.576;2023-05-07T20:40:11;8.20;;;7.80;;
489;SDS011;231;48.120;11.576;2023-05-07T20:42:38;9.10;;;8.60;;
489;SDS011;231;48.120;11.576;2023-05-07T20:45:07;8.60;;;8.10;;
489;SDS011;231;48.120;11.576;2023-05-07T20:47:35;9.03;;;8.37;;
489;SDS011;231;48.120;11.576;2023-05-07T20:50:03;9.97;;;9.47;;
489;SDS011;231;48.120;11.576;2023-05-07T20:52:31;8.70;;;8.20;;
489;SDS011;231;48.120;11.576;2023-05-07T20:54:58;10.90;;;8.67;;
489;SDS011;231;48.120;11.576;2023-05-07T20:57:25;9.10;;;8.60;;
489;SDS011;231;48.120;11.576;2023-05-07T20:59:52;9.00;;;8.50;;
489;SDS011;231;48.120;11.576;2023-05-07T21:02:25;9.67;;;8.90;;
489;SDS011;231;48.120;11.576;2023-05-07T21:05:06;8.63;;;8.13;;
489;SDS011;231;48.120;11.576;2023-05-07T21:07:36;9.50;;;9.00;;
489;SDS011;231;48.120;11.576;2023-05-07T21:10:11;9.73;;;9.23;;
489;SDS011;231;48.120;11.576;2023-05-07T21:12:38;9.70;;;9.20;;
489;SDS011;231;48.120;11.576;2023-05-07T21:15:06;9.83;;;9.33;;
489;SDS011;231;48.120;11.576;2023-05-07T21:17:36;9.10;;;8.60;;
489;SDS011;231;48.120;11.576;2023-05-07T21:20:12;9.30;;;8.80;;
489;SDS011;231;48.120;11.576;2023-05-07T21:22:43;9.80;;;9.30;;
489;SDS011;231;48.120;11.576;2023-05-07T21:25:10;10.30;;;9.80;;
489;SDS011;231;48.120;11.576;2023-05-07T21:27:37;10.47;;;9.93;;
489;SDS011;231;48.120;11.576;2023-05-07T21:30:04;9.90;;;9.40;;
489;SDS011;231;48.120;11.576;2023-05-07T21:32:31;11.90;;;11.30;;
489;SDS011;231;48.120;11.576;2023-05-07T21:34:58;11.10;;;10.50;;